Time;durP1;ratioP1;P1;durP2;ratioP2;P2;SDS_P1;SDS_P2;PMS_P1;PMS_P2;Temp;Humidity;BMP_temperature;BMP_pressure;BME280_temperature;BME280_humidity;BME280_pressure;Samples;Min_cycle;Max_cycle;Signal;HPM_P1;HPM_P2
2022/01/26 00:00:42;;;;;;;40.30;16.57;;;;;;;;;;5073228;28;20570;-70
2022/01/26 00:06:02;;;;;;;36.43;15.90;;;;;;;;;;5073213;28;20447;-71
2022/01/26 00:08:29;;;;;;;36.80;15.10;;;;;;;;;;5073477;28;20488;-71
2022/01/26 00:10:56;;;;;;;38.87;16.40;;;;;;;;;;5073650;28;20458;-71
2022/01/26 00:13:23;;;;;;;32.30;14.80;;;;;;;;;;5073343;28;20455;-71
2022/01/26 00:15:51;;;;;;;36.93;16.83;;;;;;;;;;5073219;28;20475;-71
2022/01/26 00:18:22;;;;;;;39.13;17.03;;;;;;;;;;5073530;28;20455;-71
2022/01/26 00:20:54;;;;;;;41.07;18.00;;;;;;;;;;5073530;28;20514;-71
2022/01/26 00:23:48;;;;;;;42.37;15.13;;;;;;;;;;5073323;28;20540;-71
2022/01/26 00:26:25;;;;;;;35.40;15.40;;;;;;;;;;5073097;28;20483;-71
2022/01/26 00:29:09;;;;;;;52.90;17.87;;;;;;;;;;5073130;28;20443;-71
2022/01/26 00:39:56;;;;;;;43.50;19.57;;;;;;;;;;5073109;28;20463;-71
2022/01/26 00:42:23;;;;;;;53.80;18.90;;;;;;;;;;5073435;28;20435;-71
2022/01/26 00:44:50;;;;;;;43.43;17.73;;;;;;;;;;5073297;28;20966;-71
2022/01/26 00:47:17;;;;;;;48.77;18.07;;;;;;;;;;5072961;28;20502;-71
2022/01/26 00:49:46;;;;;;;47.87;18.07;;;;;;;;;;5073201;28;20487;-71
2022/01/26 00:52:20;;;;;;;48.73;17.87;;;;;;;;;;5073044;28;20463;-71
2022/01/26 00:54:47;;;;;;;47.60;18.33;;;;;;;;;;5073274;28;20435;-71
2022/01/26 00:57:14;;;;;;;40.13;16.60;;;;;;;;;;5072825;28;20467;-71
2022/01/26 00:59:41;;;;;;;37.70;16.73;;;;;;;;;;5072872;28;20519;-71
2022/01/26 01:02:09;;;;;;;42.87;19.17;;;;;;;;;;5073109;28;20952;-71
2022/01/26 01:04:36;;;;;;;42.33;17.43;;;;;;;;;;5072973;28;20818;-71
2022/01/26 01:07:06;;;;;;;50.57;19.30;;;;;;;;;;5072960;28;20472;-71
2022/01/26 01:09:34;;;;;;;47.37;17.20;;;;;;;;;;5073101;28;20469;-71
2022/01/26 01:12:03;;;;;;;47.43;18.80;;;;;;;;;;5073065;28;20448;-71
2022/01/26 01:14:36;;;;;;;45.03;18.67;;;;;;;;;;5073022;28;20455;-71
2022/01/26 01:17:04;;;;;;;45.50;18.70;;;;;;;;;;5072715;28;20517;-71
2022/01/26 01:19:36;;;;;;;44.17;18.00;;;;;;;;;;5072579;28;20519;-71
2022/01/26 01:22:34;;;;;;;51.87;19.77;;;;;;;;;;5073035;28;20470;-71
2022/01/26 01:25:38;;;;;;;43.30;18.93;;;;;;;;;;5072911;28;20798;-71
2022/01/26 01:28:17;;;;;;;54.90;19.60;;;;;;;;;;5072444;28;20969;-71
2022/01/26 01:30:47;;;;;;;56.57;18.17;;;;;;;;;;5072645;28;20514;-71
2022/01/26 01:33:19;;;;;;;44.20;17.90;;;;;;;;;;5072890;28;20436;-71
2022/01/26 01:35:47;;;;;;;66.07;19.80;;;;;;;;;;5072696;28;21050;-71
2022/01/26 01:38:18;;;;;;;53.23;18.90;;;;;;;;;;5072623;28;20554;-71
2022/01/26 01:40:46;;;;;;;34.00;15.30;;;;;;;;;;5072530;28;20523;-71
2022/01/26 01:43:14;;;;;;;41.37;16.97;;;;;;;;;;5072742;28;20941;-71
2022/01/26 01:45:43;;;;;;;42.37;16.00;;;;;;;;;;5076185;28;20479;-71
2022/01/26 01:48:13;;;;;;;48.33;19.03;;;;;;;;;;5076108;28;20462;-71
2022/01/26 01:50:41;;;;;;;52.73;18.17;;;;;;;;;;5076169;28;20801;-71
2022/01/26 01:53:09;;;;;;;48.10;18.50;;;;;;;;;;5076152;28;20502;-71
2022/01/26 01:55:39;;;;;;;44.53;16.70;;;;;;;;;;5075761;28;21003;-70
2022/01/26 01:58:06;;;;;;;52.80;19.63;;;;;;;;;;5076159;28;20816;-72
2022/01/26 02:00:33;;;;;;;49.27;18.97;;;;;;;;;;5076085;28;20467;-71
2022/01/26 02:03:01;;;;;;;48.87;18.07;;;;;;;;;;5075837;28;20454;-71
2022/01/26 02:05:28;;;;;;;51.63;19.33;;;;;;;;;;5075565;28;20476;-71
2022/01/26 02:07:55;;;;;;;58.93;19.87;;;;;;;;;;5075987;28;20462;-71
2022/01/26 02:10:24;;;;;;;55.60;19.27;;;;;;;;;;5075540;28;20463;-71
2022/01/26 02:12:57;;;;;;;66.37;21.03;;;;;;;;;;5075895;28;20491;-71
2022/01/26 02:15:30;;;;;;;54.40;19.37;;;;;;;;;;5075776;28;20844;-71
2022/01/26 02:18:17;;;;;;;54.83;19.67;;;;;;;;;;5075790;28;20957;-71
2022/01/26 02:21:11;;;;;;;55.00;20.73;;;;;;;;;;5075468;28;20534;-71
2022/01/26 02:56:51;;;;;;;54.80;22.60;;;;;;;;;;5070900;28;20459;-71
2022/01/26 03:02:02;;;;;;;59.57;22.23;;;;;;;;;;5072578;28;20451;-71
2022/01/26 03:04:35;;;;;;;50.23;20.20;;;;;;;;;;5074756;28;20448;-71
2022/01/26 03:07:08;;;;;;;65.13;21.73;;;;;;;;;;5074764;28;20507;-71
2022/01/26 03:09:42;;;;;;;55.93;21.07;;;;;;;;;;5074581;28;20459;-71
2022/01/26 03:12:11;;;;;;;67.67;22.20;;;;;;;;;;5074767;28;20963;-71
2022/01/26 03:14:46;;;;;;;52.87;20.60;;;;;;;;;;5074726;28;20809;-71
2022/01/26 03:17:25;;;;;;;63.13;22.63;;;;;;;;;;5074246;28;20561;-71
2022/01/26 03:19:56;;;;;;;62.93;22.60;;;;;;;;;;5074463;28;20480;-71
2022/01/26 03:28:26;;;;;;;62.20;26.97;;;;;;;;;;5074275;28;20415;-71
2022/01/26 03:33:55;;;;;;;64.10;20.47;;;;;;;;;;5049596;28;20526;-71
2022/01/26 03:36:26;;;;;;;50.73;21.17;;;;;;;;;;5073896;28;20497;-71
2022/01/26 03:39:00;;;;;;;50.93;22.30;;;;;;;;;;5074304;28;20869;-71
2022/01/26 03:41:37;;;;;;;51.80;19.27;;;;;;;;;;5074537;28;20997;-71
2022/01/26 03:44:05;;;;;;;47.57;19.27;;;;;;;;;;5073969;28;20534;-71
2022/01/26 03:46:32;;;;;;;55.37;18.90;;;;;;;;;;5073959;28;20999;-71
2022/01/26 03:48:59;;;;;;;42.20;18.57;;;;;;;;;;5073622;28;20463;-70
2022/01/26 03:51:26;;;;;;;48.00;19.33;;;;;;;;;;5073902;28;20455;-71
2022/01/26 03:53:53;;;;;;;57.17;19.30;;;;;;;;;;5073574;28;20456;-71
2022/01/26 03:56:20;;;;;;;48.47;17.47;;;;;;;;;;5073501;28;20475;-71
2022/01/26 03:58:49;;;;;;;57.57;19.93;;;;;;;;;;5073611;28;20862;-71
2022/01/26 04:01:16;;;;;;;61.57;20.30;;;;;;;;;;5073739;28;20490;-71
2022/01/26 04:03:43;;;;;;;58.07;18.80;;;;;;;;;;5073731;28;20820;-71
2022/01/26 04:06:10;;;;;;;58.93;21.10;;;;;;;;;;5073238;28;21032;-71
2022/01/26 04:08:40;;;;;;;54.50;19.67;;;;;;;;;;5073530;28;20447;-71
2022/01/26 04:11:22;;;;;;;58.40;22.00;;;;;;;;;;5073533;28;20487;-71
2022/01/26 04:13:52;;;;;;;73.83;19.87;;;;;;;;;;5073345;28;20451;-71
2022/01/26 04:16:19;;;;;;;78.23;25.40;;;;;;;;;;5073271;28;20476;-71
2022/01/26 04:18:46;;;;;;;72.80;23.87;;;;;;;;;;5073552;28;20452;-71
2022/01/26 04:21:21;;;;;;;62.87;24.33;;;;;;;;;;5073181;28;20494;-71
2022/01/26 04:23:52;;;;;;;58.67;20.60;;;;;;;;;;5073559;28;20473;-71
2022/01/26 04:26:25;;;;;;;45.23;20.17;;;;;;;;;;5073289;28;20875;-71
2022/01/26 04:28:54;;;;;;;71.40;23.23;;;;;;;;;;5073432;28;20996;-71
2022/01/26 04:31:22;;;;;;;61.03;21.40;;;;;;;;;;5073490;28;20933;-71
2022/01/26 04:33:50;;;;;;;60.60;20.83;;;;;;;;;;5073215;28;20455;-71
2022/01/26 04:36:23;;;;;;;73.70;24.00;;;;;;;;;;5073076;28;20519;-71
2022/01/26 04:38:54;;;;;;;69.93;24.03;;;;;;;;;;5073462;28;20468;-71
2022/01/26 04:41:33;;;;;;;59.63;19.40;;;;;;;;;;5072987;28;20483;-71
2022/01/26 04:44:07;;;;;;;64.37;22.23;;;;;;;;;;5073367;28;20968;-71
2022/01/26 04:46:35;;;;;;;63.00;22.43;;;;;;;;;;5073228;28;20498;-71
2022/01/26 04:49:02;;;;;;;61.17;23.00;;;;;;;;;;5073253;28;20455;-71
2022/01/26 04:51:30;;;;;;;68.30;22.60;;;;;;;;;;5073235;28;21011;-71
2022/01/26 04:53:57;;;;;;;68.23;22.67;;;;;;;;;;5073101;28;20459;-71
2022/01/26 04:56:24;;;;;;;62.00;21.60;;;;;;;;;;5072927;28;20472;-71
2022/01/26 04:58:51;;;;;;;75.77;22.07;;;;;;;;;;5073105;28;20526;-71
2022/01/26 05:01:20;;;;;;;92.20;25.00;;;;;;;;;;5072843;28;20490;-71
2022/01/26 05:03:47;;;;;;;70.93;24.93;;;;;;;;;;5073123;28;20451;-71
2022/01/26 05:06:14;;;;;;;63.80;21.87;;;;;;;;;;5072945;28;20471;-71
2022/01/26 05:08:41;;;;;;;82.13;25.27;;;;;;;;;;5072851;28;20458;-71
2022/01/26 05:11:11;;;;;;;66.17;24.43;;;;;;;;;;5073026;28;20929;-71
2022/01/26 05:13:38;;;;;;;69.13;24.13;;;;;;;;;;5072824;28;20448;-71
2022/01/26 05:16:08;;;;;;;74.77;23.87;;;;;;;;;;5073151;28;20479;-71
2022/01/26 05:18:37;;;;;;;70.23;23.10;;;;;;;;;;5073775;28;20956;-71
2022/01/26 05:21:04;;;;;;;67.70;21.13;;;;;;;;;;5076754;28;20494;-71
2022/01/26 05:23:31;;;;;;;65.33;23.57;;;;;;;;;;5076598;28;20804;-71
2022/01/26 05:25:58;;;;;;;63.00;23.13;;;;;;;;;;5076691;28;20479;-71
2022/01/26 05:28:25;;;;;;;85.40;23.07;;;;;;;;;;5076426;28;20463;-71
2022/01/26 05:30:52;;;;;;;62.67;22.90;;;;;;;;;;5076298;28;20463;-71
2022/01/26 05:33:23;;;;;;;71.10;22.10;;;;;;;;;;5076326;28;20490;-71
2022/01/26 05:35:52;;;;;;;78.37;24.87;;;;;;;;;;5076030;28;20511;-71
2022/01/26 05:38:19;;;;;;;73.80;25.37;;;;;;;;;;5076578;28;20825;-71
2022/01/26 05:40:46;;;;;;;71.50;23.00;;;;;;;;;;5076455;28;20582;-71
2022/01/26 05:43:15;;;;;;;54.67;20.27;;;;;;;;;;5076439;28;20452;-71
2022/01/26 05:45:45;;;;;;;75.53;24.60;;;;;;;;;;5075955;28;20471;-71
2022/01/26 05:48:13;;;;;;;68.90;20.47;;;;;;;;;;5076243;28;20455;-71
2022/01/26 05:50:49;;;;;;;71.97;25.47;;;;;;;;;;5076123;28;20458;-71
2022/01/26 05:53:20;;;;;;;58.97;20.90;;;;;;;;;;5075972;28;20455;-71
2022/01/26 05:55:48;;;;;;;74.43;23.10;;;;;;;;;;5076026;28;20483;-71
2022/01/26 05:58:15;;;;;;;67.83;22.50;;;;;;;;;;5075826;28;20833;-71
2022/01/26 06:00:42;;;;;;;69.93;22.80;;;;;;;;;;5076123;28;20475;-71
2022/01/26 06:03:09;;;;;;;81.10;23.43;;;;;;;;;;5076087;28;20466;-71
2022/01/26 06:05:36;;;;;;;66.90;23.07;;;;;;;;;;5075704;28;20474;-71
2022/01/26 06:08:03;;;;;;;72.73;22.90;;;;;;;;;;5075970;28;20823;-71
2022/01/26 06:10:31;;;;;;;68.87;23.50;;;;;;;;;;5075887;28;20452;-71
2022/01/26 06:12:59;;;;;;;76.87;26.17;;;;;;;;;;5075903;28;20447;-71
2022/01/26 06:15:26;;;;;;;81.70;24.30;;;;;;;;;;5075863;28;20475;-71
2022/01/26 06:17:53;;;;;;;70.17;24.07;;;;;;;;;;5075642;28;20857;-71
2022/01/26 06:20:20;;;;;;;69.07;22.33;;;;;;;;;;5075865;28;20959;-71
2022/01/26 06:22:47;;;;;;;76.37;26.00;;;;;;;;;;5075323;28;20495;-71
2022/01/26 06:25:15;;;;;;;72.80;27.30;;;;;;;;;;5075275;28;20456;-71
2022/01/26 06:27:44;;;;;;;76.20;27.40;;;;;;;;;;5075657;28;20944;-71
2022/01/26 06:30:12;;;;;;;96.90;27.10;;;;;;;;;;5074962;28;20436;-71
2022/01/26 06:32:39;;;;;;;70.23;24.47;;;;;;;;;;5075273;28;20459;-71
2022/01/26 06:35:08;;;;;;;60.90;23.23;;;;;;;;;;5075180;28;20448;-71
2022/01/26 06:37:35;;;;;;;71.50;26.50;;;;;;;;;;5075474;28;20942;-71
2022/01/26 06:40:02;;;;;;;90.77;28.43;;;;;;;;;;5075432;28;20447;-71
2022/01/26 06:42:35;;;;;;;61.13;23.90;;;;;;;;;;5075314;28;20544;-71
2022/01/26 06:45:15;;;;;;;66.77;25.20;;;;;;;;;;5075011;28;20433;-71
2022/01/26 06:48:00;;;;;;;70.50;24.80;;;;;;;;;;5075017;28;20489;-71
2022/01/26 06:50:27;;;;;;;64.47;25.27;;;;;;;;;;5074934;28;20443;-71
2022/01/26 06:52:54;;;;;;;73.73;24.37;;;;;;;;;;5075053;28;20826;-71
2022/01/26 06:55:21;;;;;;;64.90;24.97;;;;;;;;;;5075086;28;20451;-71
2022/01/26 06:57:49;;;;;;;70.93;24.90;;;;;;;;;;5074803;28;20457;-71
2022/01/26 07:00:17;;;;;;;68.40;21.67;;;;;;;;;;5075018;28;20957;-71
2022/01/26 07:02:45;;;;;;;66.40;25.37;;;;;;;;;;5074937;28;20980;-71
2022/01/26 07:05:13;;;;;;;71.90;23.80;;;;;;;;;;5074863;28;20475;-71
2022/01/26 07:07:40;;;;;;;67.47;23.67;;;;;;;;;;5074926;28;20792;-71
2022/01/26 07:10:08;;;;;;;58.10;20.30;;;;;;;;;;5074861;28;20889;-71
2022/01/26 07:12:35;;;;;;;72.53;22.10;;;;;;;;;;5074558;28;20451;-71
2022/01/26 07:23:17;;;;;;;64.30;22.27;;;;;;;;;;5074486;28;20434;-71
2022/01/26 07:25:44;;;;;;;72.87;24.67;;;;;;;;;;5074379;28;20471;-71
2022/01/26 07:28:11;;;;;;;61.70;23.67;;;;;;;;;;5074455;28;20458;-71
2022/01/26 07:30:38;;;;;;;68.93;23.77;;;;;;;;;;5074073;28;20438;-71
2022/01/26 07:33:07;;;;;;;64.23;22.40;;;;;;;;;;5074330;28;20959;-71
2022/01/26 07:35:35;;;;;;;67.60;24.60;;;;;;;;;;5073796;28;20480;-71
2022/01/26 07:38:03;;;;;;;66.57;27.10;;;;;;;;;;5074238;28;20438;-71
2022/01/26 07:40:30;;;;;;;65.43;27.80;;;;;;;;;;5074120;28;20452;-71
2022/01/26 07:42:57;;;;;;;50.67;21.60;;;;;;;;;;5073322;28;20482;-71
2022/01/26 07:45:25;;;;;;;66.03;24.70;;;;;;;;;;5073758;28;20467;-71
2022/01/26 07:47:54;;;;;;;62.23;25.17;;;;;;;;;;5073671;28;20478;-71
2022/01/26 07:50:23;;;;;;;75.63;22.87;;;;;;;;;;5074328;28;20505;-71
2022/01/26 07:52:50;;;;;;;65.03;24.30;;;;;;;;;;5072118;28;20448;-70
2022/01/26 07:55:20;;;;;;;64.17;24.57;;;;;;;;;;5072879;28;20455;-70
2022/01/26 07:57:48;;;;;;;72.13;25.70;;;;;;;;;;5072692;28;21031;-70
2022/01/26 08:00:16;;;;;;;65.33;25.60;;;;;;;;;;5072297;28;20459;-71
2022/01/26 08:02:43;;;;;;;87.83;32.30;;;;;;;;;;5072474;28;21019;-70
2022/01/26 08:05:11;;;;;;;72.03;25.50;;;;;;;;;;5072452;28;20452;-70
2022/01/26 08:07:39;;;;;;;72.27;25.03;;;;;;;;;;5072990;28;20897;-70
2022/01/26 08:10:07;;;;;;;64.53;23.10;;;;;;;;;;5072193;28;20471;-70
2022/01/26 08:12:35;;;;;;;58.77;22.30;;;;;;;;;;5072453;28;20957;-71
2022/01/26 08:15:02;;;;;;;63.93;23.70;;;;;;;;;;5072380;28;20467;-71
2022/01/26 08:17:29;;;;;;;66.10;25.27;;;;;;;;;;5072456;28;20474;-71
2022/01/26 08:19:56;;;;;;;74.80;26.50;;;;;;;;;;5072358;28;20447;-71
2022/01/26 08:22:26;;;;;;;66.20;21.60;;;;;;;;;;5072003;28;20483;-70
2022/01/26 08:24:55;;;;;;;57.93;21.90;;;;;;;;;;5072269;28;21022;-70
2022/01/26 08:27:25;;;;;;;65.13;23.80;;;;;;;;;;5072203;28;20501;-71
2022/01/26 08:29:56;;;;;;;61.07;25.43;;;;;;;;;;5072005;28;20443;-70
2022/01/26 08:32:23;;;;;;;55.67;21.73;;;;;;;;;;5071900;28;20472;-71
2022/01/26 08:34:50;;;;;;;57.30;24.10;;;;;;;;;;5071878;28;20509;-71
2022/01/26 08:37:17;;;;;;;52.67;21.90;;;;;;;;;;5071801;28;20888;-71
2022/01/26 08:39:44;;;;;;;70.80;25.17;;;;;;;;;;5072222;28;20448;-71
2022/01/26 08:42:13;;;;;;;68.90;26.77;;;;;;;;;;5071768;28;20483;-70
2022/01/26 08:44:40;;;;;;;42.50;20.70;;;;;;;;;;5072131;28;20896;-71
2022/01/26 08:47:07;;;;;;;54.43;23.07;;;;;;;;;;5071743;28;20890;-71
2022/01/26 08:49:35;;;;;;;62.27;24.03;;;;;;;;;;5072135;28;20797;-70
2022/01/26 08:52:02;;;;;;;56.97;24.60;;;;;;;;;;5072081;28;20447;-70
2022/01/26 08:54:29;;;;;;;54.47;21.57;;;;;;;;;;5075871;28;20459;-70
2022/01/26 08:56:56;;;;;;;61.10;23.30;;;;;;;;;;5076047;28;20467;-70
2022/01/26 08:59:25;;;;;;;53.87;22.00;;;;;;;;;;5076086;28;20459;-70
2022/01/26 09:01:53;;;;;;;60.70;24.63;;;;;;;;;;5076031;28;20999;-71
2022/01/26 09:04:20;;;;;;;66.73;24.47;;;;;;;;;;5076085;28;20815;-70
2022/01/26 09:06:53;;;;;;;53.63;21.50;;;;;;;;;;5075878;28;20827;-70
2022/01/26 09:09:21;;;;;;;58.13;24.73;;;;;;;;;;5075995;28;20963;-71
2022/01/26 09:11:48;;;;;;;61.23;24.60;;;;;;;;;;5075740;28;20791;-71
2022/01/26 09:14:19;;;;;;;52.40;20.57;;;;;;;;;;5075913;28;20805;-71
2022/01/26 09:16:49;;;;;;;56.77;22.53;;;;;;;;;;5075387;28;20479;-71
2022/01/26 09:19:26;;;;;;;48.40;21.87;;;;;;;;;;5075771;28;20458;-71
2022/01/26 09:21:53;;;;;;;52.73;24.23;;;;;;;;;;5075342;28;20471;-71
2022/01/26 09:24:21;;;;;;;51.73;22.60;;;;;;;;;;5075576;28;20451;-71
2022/01/26 09:26:48;;;;;;;50.10;21.90;;;;;;;;;;5075177;28;20475;-71
2022/01/26 09:29:15;;;;;;;41.27;19.27;;;;;;;;;;5075481;28;20967;-71
2022/01/26 09:31:44;;;;;;;44.80;21.60;;;;;;;;;;5075401;28;20443;-71
2022/01/26 09:34:12;;;;;;;48.10;20.87;;;;;;;;;;5075111;28;20498;-71
2022/01/26 09:36:39;;;;;;;50.40;20.67;;;;;;;;;;5075102;28;20992;-71
2022/01/26 09:39:07;;;;;;;50.23;22.87;;;;;;;;;;5075220;28;20486;-71
2022/01/26 09:41:35;;;;;;;49.10;20.03;;;;;;;;;;5074837;28;20451;-71
2022/01/26 09:44:03;;;;;;;55.87;22.43;;;;;;;;;;5075284;28;20451;-71
2022/01/26 09:46:31;;;;;;;54.33;22.57;;;;;;;;;;5075099;28;20475;-71
2022/01/26 09:48:58;;;;;;;48.77;25.00;;;;;;;;;;5074865;28;20456;-71
2022/01/26 09:51:27;;;;;;;47.23;20.47;;;;;;;;;;5074642;28;20538;-71
2022/01/26 09:54:01;;;;;;;43.70;18.07;;;;;;;;;;5075066;28;20447;-71
2022/01/26 09:56:28;;;;;;;50.73;22.80;;;;;;;;;;5074653;28;20516;-71
2022/01/26 09:58:55;;;;;;;48.27;23.80;;;;;;;;;;5074955;28;20664;-71
2022/01/26 10:01:22;;;;;;;39.43;20.13;;;;;;;;;;5074634;28;20454;-71
2022/01/26 10:03:51;;;;;;;48.40;21.77;;;;;;;;;;5074434;28;20490;-71
2022/01/26 10:06:26;;;;;;;58.87;21.50;;;;;;;;;;5074002;28;20477;-71
2022/01/26 10:09:14;;;;;;;47.20;21.60;;;;;;;;;;5074748;28;20446;-71
2022/01/26 10:17:27;;;;;;;46.73;19.20;;;;;;;;;;5074309;28;20492;-71
2022/01/26 10:19:56;;;;;;;54.30;22.40;;;;;;;;;;5074527;28;20562;-71
2022/01/26 10:22:26;;;;;;;55.67;23.40;;;;;;;;;;5074164;28;20914;-71
2022/01/26 10:25:04;;;;;;;51.13;22.57;;;;;;;;;;5074106;28;20820;-71
2022/01/26 10:27:36;;;;;;;50.40;23.70;;;;;;;;;;5074511;28;20770;-71
2022/01/26 10:30:05;;;;;;;51.00;23.30;;;;;;;;;;5074344;28;20436;-71
2022/01/26 10:32:33;;;;;;;50.80;26.23;;;;;;;;;;5074368;28;20448;-71
2022/01/26 10:35:01;;;;;;;52.10;22.47;;;;;;;;;;5074211;28;20696;-71
2022/01/26 10:37:28;;;;;;;48.53;21.83;;;;;;;;;;5073824;28;20525;-71
2022/01/26 10:39:58;;;;;;;56.33;24.47;;;;;;;;;;5073869;28;20448;-71
2022/01/26 10:42:27;;;;;;;52.50;23.67;;;;;;;;;;5074197;28;20472;-71
2022/01/26 10:45:05;;;;;;;51.87;22.50;;;;;;;;;;5074107;28;20455;-71
2022/01/26 10:47:36;;;;;;;57.20;24.80;;;;;;;;;;5074072;28;20533;-71
2022/01/26 10:50:31;;;;;;;54.53;23.70;;;;;;;;;;5074119;28;20498;-71
2022/01/26 10:53:06;;;;;;;41.63;19.87;;;;;;;;;;5074016;28;20820;-71
2022/01/26 10:55:33;;;;;;;52.53;25.40;;;;;;;;;;5073827;28;20983;-71
2022/01/26 10:58:02;;;;;;;53.93;24.97;;;;;;;;;;5073799;28;20821;-71
2022/01/26 11:00:29;;;;;;;46.63;22.80;;;;;;;;;;5073909;28;21021;-71
2022/01/26 11:02:57;;;;;;;44.83;18.80;;;;;;;;;;5073695;28;20491;-71
2022/01/26 11:05:25;;;;;;;52.93;22.43;;;;;;;;;;5074374;28;20890;-71
2022/01/26 11:07:53;;;;;;;49.30;23.30;;;;;;;;;;5074690;28;20921;-71
2022/01/26 11:10:23;;;;;;;54.87;22.60;;;;;;;;;;5074730;28;20439;-71
2022/01/26 11:12:50;;;;;;;48.80;22.57;;;;;;;;;;5074699;28;20467;-71
2022/01/26 11:15:23;;;;;;;48.17;22.60;;;;;;;;;;5074472;28;20530;-71
2022/01/26 11:17:51;;;;;;;57.77;25.37;;;;;;;;;;5073462;28;20436;-71
2022/01/26 11:20:20;;;;;;;48.20;23.60;;;;;;;;;;5074647;28;20825;-71
2022/01/26 11:22:51;;;;;;;59.37;24.30;;;;;;;;;;5074383;28;20483;-71
2022/01/26 11:25:18;;;;;;;47.87;21.80;;;;;;;;;;5074365;28;20808;-71
2022/01/26 11:27:45;;;;;;;48.17;22.70;;;;;;;;;;5074353;28;20949;-71
2022/01/26 11:30:16;;;;;;;54.40;24.70;;;;;;;;;;5074410;28;20459;-71
2022/01/26 11:32:52;;;;;;;40.73;22.40;;;;;;;;;;5074043;28;20505;-71
2022/01/26 11:35:21;;;;;;;44.43;22.00;;;;;;;;;;5074069;28;20454;-71
2022/01/26 11:38:04;;;;;;;48.63;24.17;;;;;;;;;;5072723;28;20784;-71
2022/01/26 11:46:09;;;;;;;49.00;23.37;;;;;;;;;;5072262;28;20878;-71
2022/01/26 11:48:38;;;;;;;52.37;24.93;;;;;;;;;;5072821;28;20443;-71
2022/01/26 11:51:05;;;;;;;46.13;24.97;;;;;;;;;;5072494;28;20462;-71
2022/01/26 11:53:33;;;;;;;53.43;23.53;;;;;;;;;;5072502;28;20451;-71
2022/01/26 11:56:06;;;;;;;63.00;28.13;;;;;;;;;;5072679;28;20472;-71
2022/01/26 11:58:35;;;;;;;53.10;23.70;;;;;;;;;;5072715;28;20833;-71
2022/01/26 12:01:14;;;;;;;50.30;25.40;;;;;;;;;;5072625;28;20864;-71
2022/01/26 12:03:47;;;;;;;46.30;23.47;;;;;;;;;;5072568;28;20529;-71
2022/01/26 12:06:19;;;;;;;48.00;23.93;;;;;;;;;;5072265;28;20479;-71
2022/01/26 12:08:47;;;;;;;46.37;23.67;;;;;;;;;;5072339;28;20440;-71
2022/01/26 12:11:14;;;;;;;46.67;24.90;;;;;;;;;;5072617;28;20451;-71
2022/01/26 12:13:42;;;;;;;49.67;25.80;;;;;;;;;;5072548;28;20929;-71
2022/01/26 12:16:12;;;;;;;47.77;24.80;;;;;;;;;;5072085;28;20476;-71
2022/01/26 12:18:51;;;;;;;49.37;23.30;;;;;;;;;;5072307;28;21032;-71
2022/01/26 12:35:33;;;;;;;55.80;23.70;;;;;;;;;;5071908;28;21129;-71
2022/01/26 12:38:08;;;;;;;53.77;25.00;;;;;;;;;;5072614;28;20867;-71
2022/01/26 12:43:22;;;;;;;43.37;22.77;;;;;;;;;;5073106;28;20463;-72
2022/01/26 12:45:54;;;;;;;46.03;23.47;;;;;;;;;;5073292;28;20479;-71
2022/01/26 12:48:22;;;;;;;47.20;24.00;;;;;;;;;;5073396;28;20439;-72
2022/01/26 12:50:50;;;;;;;49.00;26.53;;;;;;;;;;5073363;28;20451;-72
2022/01/26 12:53:23;;;;;;;49.43;26.77;;;;;;;;;;5073296;28;20444;-72
2022/01/26 12:55:54;;;;;;;48.53;24.77;;;;;;;;;;5072899;28;20479;-71
2022/01/26 12:58:24;;;;;;;56.27;24.77;;;;;;;;;;5073243;28;20454;-71
2022/01/26 13:00:52;;;;;;;53.27;25.53;;;;;;;;;;5072968;28;20475;-72
2022/01/26 13:03:23;;;;;;;55.57;24.63;;;;;;;;;;5073203;28;20887;-72
2022/01/26 13:05:50;;;;;;;54.33;26.67;;;;;;;;;;5072786;28;20474;-72
2022/01/26 13:08:18;;;;;;;53.67;25.67;;;;;;;;;;5073261;28;20436;-72
2022/01/26 13:10:45;;;;;;;48.37;24.67;;;;;;;;;;5072936;28;20456;-71
2022/01/26 13:13:13;;;;;;;48.77;23.17;;;;;;;;;;5072818;28;20455;-71
2022/01/26 13:15:50;;;;;;;46.57;24.60;;;;;;;;;;5073233;28;20479;-71
2022/01/26 13:18:25;;;;;;;52.57;26.03;;;;;;;;;;5073132;28;20451;-72
2022/01/26 13:21:17;;;;;;;53.30;26.10;;;;;;;;;;5070990;28;20459;-72
2022/01/26 13:24:01;;;;;;;50.40;25.57;;;;;;;;;;5071954;28;20986;-71
2022/01/26 13:26:37;;;;;;;57.17;23.40;;;;;;;;;;5071795;28;20475;-71
2022/01/26 13:29:18;;;;;;;63.30;23.60;;;;;;;;;;5071529;28;20435;-71
2022/01/26 13:32:11;;;;;;;46.90;24.33;;;;;;;;;;5071814;28;20804;-71
2022/01/26 13:34:59;;;;;;;46.57;23.37;;;;;;;;;;5071689;28;20428;-71
2022/01/26 13:37:36;;;;;;;51.87;25.23;;;;;;;;;;5071263;28;20491;-71
2022/01/26 13:40:22;;;;;;;58.03;26.70;;;;;;;;;;5073049;28;20535;-71
2022/01/26 13:43:25;;;;;;;50.33;24.70;;;;;;;;;;5075178;28;20440;-71
2022/01/26 13:51:43;;;;;;;50.83;22.70;;;;;;;;;;5087322;28;20447;-71
2022/01/26 13:54:40;;;;;;;51.50;23.50;;;;;;;;;;5121944;27;20886;-71
2022/01/26 13:57:28;;;;;;;56.90;24.50;;;;;;;;;;5130611;27;21034;-71
2022/01/26 13:59:57;;;;;;;50.67;24.63;;;;;;;;;;5130742;27;20937;-71
2022/01/26 14:02:27;;;;;;;52.50;25.30;;;;;;;;;;5130119;27;20460;-71
2022/01/26 14:04:56;;;;;;;49.57;22.63;;;;;;;;;;5130158;27;20429;-71
2022/01/26 14:07:23;;;;;;;62.57;28.00;;;;;;;;;;5130256;27;20493;-71
2022/01/26 14:09:50;;;;;;;50.27;23.67;;;;;;;;;;5130218;27;20914;-72
2022/01/26 14:12:22;;;;;;;60.07;27.60;;;;;;;;;;5130332;27;20448;-71
2022/01/26 14:14:56;;;;;;;53.33;24.30;;;;;;;;;;5130343;27;20434;-71
2022/01/26 14:17:34;;;;;;;60.37;25.87;;;;;;;;;;5130206;27;20468;-71
2022/01/26 14:20:19;;;;;;;64.17;27.87;;;;;;;;;;5130154;27;20919;-71
2022/01/26 14:23:02;;;;;;;51.20;25.93;;;;;;;;;;5130000;27;20531;-71
2022/01/26 14:25:31;;;;;;;56.93;23.87;;;;;;;;;;5129853;27;20507;-71
2022/01/26 14:28:04;;;;;;;56.30;23.97;;;;;;;;;;5129759;27;20483;-71
2022/01/26 14:30:43;;;;;;;45.60;23.93;;;;;;;;;;5130831;27;20540;-71
2022/01/26 14:33:31;;;;;;;55.20;28.10;;;;;;;;;;5130463;27;20529;-71
2022/01/26 14:36:25;;;;;;;58.67;25.67;;;;;;;;;;5130932;27;20830;-71
2022/01/26 15:11:02;;;;;;;46.83;25.47;;;;;;;;;;5116377;28;20456;-72
2022/01/26 15:35:09;;;;;;;55.67;25.00;;;;;;;;;;5115505;28;20995;-71
2022/01/26 15:40:29;;;;;;;53.70;24.80;;;;;;;;;;5115911;28;20837;-72
2022/01/26 15:43:35;;;;;;;56.03;24.20;;;;;;;;;;5115802;28;20441;-72
2022/01/26 15:48:53;;;;;;;57.00;23.43;;;;;;;;;;5115417;28;21118;-72
2022/01/26 16:05:22;;;;;;;57.30;24.27;;;;;;;;;;5114439;28;20517;-71
2022/01/26 16:07:54;;;;;;;70.10;29.07;;;;;;;;;;5114990;28;20488;-71
2022/01/26 16:21:21;;;;;;;75.77;35.87;;;;;;;;;;5114858;28;20430;-72
2022/01/26 16:37:49;;;;;;;56.47;25.43;;;;;;;;;;5114491;28;21028;-71
2022/01/26 17:02:34;;;;;;;57.60;24.60;;;;;;;;;;5114124;28;20425;-73
2022/01/26 17:24:46;;;;;;;48.43;24.40;;;;;;;;;;5113672;28;20805;-71
2022/01/26 17:46:41;;;;;;;51.67;26.17;;;;;;;;;;5113364;28;20478;-71
2022/01/26 17:46:59;;;;;;;53.87;24.57;;;;;;;;;;5113102;28;20994;-71
2022/01/26 18:04:00;;;;;;;60.13;22.07;;;;;;;;;;5113086;28;20468;-71
2022/01/26 18:15:33;;;;;;;48.67;24.20;;;;;;;;;;5112588;28;20433;-71
2022/01/26 18:21:53;;;;;;;53.07;24.67;;;;;;;;;;5113226;28;20471;-71
2022/01/26 18:26:28;;;;;;;57.60;22.50;;;;;;;;;;5112978;28;20816;-71
2022/01/26 18:32:09;;;;;;;39.93;19.70;;;;;;;;;;5050208;28;20437;-71
2022/01/26 18:40:31;;;;;;;42.93;21.27;;;;;;;;;;5117058;28;20421;-72
2022/01/26 18:51:23;;;;;;;46.37;23.77;;;;;;;;;;5116075;28;20941;-71
2022/01/26 18:53:50;;;;;;;44.90;22.50;;;;;;;;;;5116312;28;20804;-72
2022/01/26 18:56:17;;;;;;;58.83;27.97;;;;;;;;;;5116424;28;20988;-72
2022/01/26 18:58:44;;;;;;;44.07;22.43;;;;;;;;;;5116454;28;20453;-72
2022/01/26 19:01:12;;;;;;;45.13;17.73;;;;;;;;;;5116494;28;20911;-72
2022/01/26 19:03:40;;;;;;;47.17;22.13;;;;;;;;;;5116012;28;20449;-72
2022/01/26 19:06:07;;;;;;;52.30;24.27;;;;;;;;;;5115766;28;20481;-72
2022/01/26 19:08:34;;;;;;;47.73;22.17;;;;;;;;;;5116074;28;20482;-72
2022/01/26 19:11:01;;;;;;;44.10;21.50;;;;;;;;;;5116199;28;20450;-72
2022/01/26 19:13:31;;;;;;;45.40;21.07;;;;;;;;;;5115944;27;20457;-72
2022/01/26 19:16:04;;;;;;;50.97;21.97;;;;;;;;;;5116056;28;20522;-71
2022/01/26 19:18:48;;;;;;;48.07;22.07;;;;;;;;;;5116138;28;20453;-71
2022/01/26 19:21:22;;;;;;;51.00;23.80;;;;;;;;;;5116114;28;20957;-72
2022/01/26 19:24:15;;;;;;;44.93;22.93;;;;;;;;;;5115731;28;20455;-72
2022/01/26 19:26:48;;;;;;;60.50;25.00;;;;;;;;;;5115856;28;20474;-72
2022/01/26 19:29:26;;;;;;;45.40;23.07;;;;;;;;;;5115885;28;20489;-71
2022/01/26 19:41:04;;;;;;;76.80;30.37;;;;;;;;;;5115879;28;20453;-71
2022/01/26 19:43:51;;;;;;;65.00;28.27;;;;;;;;;;5115602;28;20469;-71
2022/01/26 19:46:29;;;;;;;50.07;23.63;;;;;;;;;;5115285;28;20466;-71
2022/01/26 19:51:54;;;;;;;55.93;26.77;;;;;;;;;;5115366;28;20433;-71